メインページ
METAR-TAF:

METAR-TAF

空港 :

シント・マールテン, オランダ領アンティル

プリンセス・ジュリアナ国際空港

緯度: 18-03N, 経度: 063-07W, 海抜: 4m

現時点の気象観測

当レポートは1時間10分前の11:00(UTC)に作成
東/南東の風 7kt
気温 26°C
湿度 84%
気圧 1016 hPa
視程10km以上
高度2000ftの雲はほとんどない

METAR: TNCM 241100Z 12007KT 9999 FEW020 26/23 Q1015 A2999 NOSIG

時間: 08:10 (12:10 UTC)

予報

当レポートは21分前の11:49(UTC)に作成
予報は24日の 12時(UTC)から 25日の 12時(UTC)まで有効
東/南東の風 9kt
視程: 10km
高度1800ftの雲はほとんどない
24日の 1400時(UTC)から
南東の風 12kt
視程: 10km
高度2100ftの雲は散在している
高度4000ftの雲は散在している
近辺でにわか雨
24日の 2300時(UTC)から
東/南東の風 10kt
視程: 10km
高度1800ftの雲は散在している
高度3500ftの雲は散在している

TAF: TNCM 241149Z 2412/2512 12009KT P6SM FEW018 FM241400 13012KT P6SM VCSH SCT021 SCT040 FM242300 12010KT P6SM SCT018 SCT035

4,000以上の空港の気象観測と天気予報(METAR報とTAF報)

利用可能な観測所は地図上に黄色い丸と赤い丸で示す。

丸の上にカーソルを重ねると観測所名を参照できる。

次にクリックすると気象観測と天気予報を参照できる。

マップの切り替え:黒色「×」印の緑ボタンをクリックして拡大、「-」印の緑ボタンをクリックして縮小、緑色の三角印をクリックして隣りの地図に切り替え


METAR-TAF: